Time;durP1;ratioP1;P1;durP2;ratioP2;P2;SDS_P1;SDS_P2;PMS_P1;PMS_P2;Temp;Humidity;BMP_temperature;BMP_pressure;BME280_temperature;BME280_humidity;BME280_pressure;Samples;Min_cycle;Max_cycle;Signal;HPM_P1;HPM_P2
2024/01/05 00:01:03;;;;;;;13.60;4.32;;;;;;;8.41;100.00;99824.50;5110762;28;20056;-68
2024/01/05 00:03:51;;;;;;;11.07;3.67;;;;;;;8.42;100.00;99826.09;5080655;28;20560;-68
2024/01/05 00:06:40;;;;;;;12.70;4.30;;;;;;;8.41;100.00;99822.59;5098189;28;20035;-68
2024/01/05 00:09:28;;;;;;;12.73;4.20;;;;;;;8.45;100.00;99807.38;5115054;28;20059;-67
2024/01/05 00:12:17;;;;;;;12.77;3.92;;;;;;;8.48;100.00;99800.56;5095975;28;20046;-70
2024/01/05 00:15:05;;;;;;;12.10;3.70;;;;;;;8.47;100.00;99805.19;5096668;28;20059;-68
2024/01/05 00:17:58;;;;;;;16.63;4.22;;;;;;;8.44;100.00;99794.91;5112810;27;20198;-68
2024/01/05 00:20:46;;;;;;;15.10;4.70;;;;;;;8.42;100.00;99796.25;5084475;27;20040;-68
2024/01/05 00:23:34;;;;;;;12.82;3.80;;;;;;;8.40;100.00;99790.31;5093716;28;20052;-69
2024/01/05 00:26:22;;;;;;;13.85;3.78;;;;;;;8.37;100.00;99778.06;5094179;28;20040;-67
2024/01/05 00:29:10;;;;;;;14.85;4.22;;;;;;;8.37;100.00;99767.22;5098095;28;20118;-69
2024/01/05 00:31:58;;;;;;;13.88;4.10;;;;;;;8.39;100.00;99778.59;5094015;28;20416;-67
2024/01/05 00:34:46;;;;;;;14.13;4.05;;;;;;;8.39;100.00;99767.72;5098869;28;20466;-67
2024/01/05 00:37:35;;;;;;;10.98;3.70;;;;;;;8.39;100.00;99770.44;5112050;28;20519;-68
2024/01/05 00:40:22;;;;;;;17.55;4.70;;;;;;;8.37;100.00;99761.78;5069214;28;20050;-68
2024/01/05 00:43:10;;;;;;;14.23;4.18;;;;;;;8.34;100.00;99762.31;5082045;27;20074;-68
2024/01/05 00:45:59;;;;;;;13.73;3.67;;;;;;;8.35;100.00;99763.16;5119060;27;20132;-68
2024/01/05 00:48:47;;;;;;;13.35;3.90;;;;;;;8.33;100.00;99761.53;5100234;28;20048;-68
2024/01/05 00:51:35;;;;;;;15.70;3.90;;;;;;;8.33;100.00;99752.56;5098332;28;20051;-67
2024/01/05 00:54:25;;;;;;;13.93;3.80;;;;;;;8.33;100.00;99755.28;5109207;27;20062;-67
2024/01/05 00:57:13;;;;;;;11.60;3.58;;;;;;;8.35;100.00;99753.13;5099187;28;20090;-69
2024/01/05 01:00:01;;;;;;;13.68;4.15;;;;;;;8.34;100.00;99740.63;5098666;28;20510;-68
2024/01/05 01:02:51;;;;;;;14.32;3.88;;;;;;;8.36;100.00;99751.19;5112022;28;20526;-70
2024/01/05 01:05:39;;;;;;;10.35;3.72;;;;;;;8.38;100.00;99738.97;5113483;28;20036;-68
2024/01/05 01:08:28;;;;;;;14.55;4.00;;;;;;;8.39;100.00;99742.50;5079191;28;20040;-69
2024/01/05 01:11:17;;;;;;;15.35;3.60;;;;;;;8.38;100.00;99741.69;5093163;28;20044;-67
2024/01/05 01:14:05;;;;;;;15.48;4.25;;;;;;;8.40;100.00;99738.75;5107469;27;20039;-68
2024/01/05 01:16:52;;;;;;;15.13;4.32;;;;;;;8.41;100.00;99734.91;5119181;27;20122;-67
2024/01/05 01:19:40;;;;;;;16.30;4.32;;;;;;;8.42;100.00;99731.94;5112742;27;20054;-67
2024/01/05 01:22:28;;;;;;;11.00;3.60;;;;;;;8.43;100.00;99728.13;5095990;28;20067;-67
2024/01/05 01:25:17;;;;;;;13.93;3.60;;;;;;;8.45;100.00;99728.66;5083600;28;20035;-67
2024/01/05 01:28:05;;;;;;;9.73;3.25;;;;;;;8.47;100.00;99731.91;5098265;28;20210;-68
2024/01/05 01:30:53;;;;;;;11.93;3.67;;;;;;;8.49;100.00;99727.00;5112358;28;20123;-67
2024/01/05 01:33:41;;;;;;;14.45;3.63;;;;;;;8.50;100.00;99723.19;5112531;28;20050;-67
2024/01/05 01:36:29;;;;;;;12.75;3.67;;;;;;;8.50;100.00;99722.38;5117454;28;20048;-67
2024/01/05 01:39:18;;;;;;;14.02;3.97;;;;;;;8.49;100.00;99723.44;5112423;28;20050;-68
2024/01/05 01:42:06;;;;;;;16.85;3.80;;;;;;;8.48;100.00;99719.13;5065073;28;20044;-68
2024/01/05 01:44:54;;;;;;;11.43;3.38;;;;;;;8.49;100.00;99713.44;5100311;28;20046;-68
2024/01/05 01:47:42;;;;;;;11.18;3.47;;;;;;;8.52;100.00;99714.78;5097440;28;20089;-71
2024/01/05 01:50:30;;;;;;;10.90;3.55;;;;;;;8.53;100.00;99710.94;5085139;27;20043;-68
2024/01/05 01:53:20;;;;;;;15.55;3.63;;;;;;;8.53;100.00;99706.31;5067444;28;20119;-69
2024/01/05 01:56:10;;;;;;;13.52;3.60;;;;;;;8.55;100.00;99695.19;5084900;28;20051;-70
2024/01/05 01:58:58;;;;;;;10.70;3.40;;;;;;;8.56;100.00;99693.28;5103245;28;20040;-69
2024/01/05 02:01:46;;;;;;;10.07;3.28;;;;;;;8.57;100.00;99681.34;5069043;28;20071;-68
2024/01/05 02:04:35;;;;;;;12.07;3.65;;;;;;;8.59;100.00;99679.97;5054264;28;20075;-70
2024/01/05 02:07:23;;;;;;;10.68;3.42;;;;;;;8.60;100.00;99678.88;5103515;28;20091;-68
2024/01/05 02:10:11;;;;;;;14.00;4.03;;;;;;;8.61;100.00;99668.81;5115556;28;20057;-68
2024/01/05 02:12:59;;;;;;;12.10;3.75;;;;;;;8.60;100.00;99664.47;5104917;28;20054;-68
2024/01/05 02:15:47;;;;;;;11.73;3.22;;;;;;;8.61;100.00;99655.22;5078492;28;20118;-68
2024/01/05 02:18:55;;;;;;;13.63;3.40;;;;;;;8.63;100.00;99658.47;5096136;28;20418;-69
2024/01/05 02:21:47;;;;;;;10.85;2.80;;;;;;;8.62;100.00;99646.00;5119424;27;20484;-67
2024/01/05 02:24:35;;;;;;;9.55;2.90;;;;;;;8.66;100.00;99644.31;5110636;27;20070;-68
2024/01/05 02:27:23;;;;;;;12.30;3.45;;;;;;;8.66;100.00;99641.59;5125615;27;20035;-67
2024/01/05 02:30:18;;;;;;;9.77;2.78;;;;;;;8.67;100.00;99635.09;5121467;27;20180;-67
2024/01/05 02:33:06;;;;;;;10.13;3.30;;;;;;;8.67;100.00;99625.03;5114391;28;20071;-67
2024/01/05 02:35:54;;;;;;;13.02;3.40;;;;;;;8.68;100.00;99623.13;5120119;28;20047;-68
2024/01/05 02:38:42;;;;;;;9.77;2.90;;;;;;;8.68;100.00;99615.00;5118488;28;20105;-67
2024/01/05 02:41:33;;;;;;;9.25;2.90;;;;;;;8.67;100.00;99605.22;5117257;28;20052;-67
2024/01/05 02:44:21;;;;;;;11.15;3.20;;;;;;;8.64;100.00;99611.25;5118027;28;20127;-69
2024/01/05 02:47:09;;;;;;;10.50;3.35;;;;;;;8.62;100.00;99611.53;5103773;28;20035;-68
2024/01/05 02:49:57;;;;;;;10.15;3.38;;;;;;;8.61;100.00;99612.63;5102550;28;20093;-67
2024/01/05 02:52:45;;;;;;;11.30;3.63;;;;;;;8.60;100.00;99602.84;5117904;27;20088;-67
2024/01/05 02:55:33;;;;;;;10.57;3.45;;;;;;;8.59;100.00;99598.53;5118874;28;20044;-68
2024/01/05 02:58:21;;;;;;;10.80;3.50;;;;;;;8.60;100.00;99591.19;5116571;28;20526;-70
2024/01/05 03:01:15;;;;;;;9.23;3.00;;;;;;;8.62;100.00;99594.44;5118482;28;20047;-68
2024/01/05 03:04:04;;;;;;;13.07;3.38;;;;;;;8.62;100.00;99592.50;5104139;28;20044;-68
2024/01/05 03:06:52;;;;;;;12.18;3.20;;;;;;;8.63;100.00;99577.81;5119144;27;20047;-68
2024/01/05 03:09:40;;;;;;;14.13;3.45;;;;;;;8.60;100.00;99574.88;5080723;28;20040;-68
2024/01/05 03:12:28;;;;;;;9.05;3.38;;;;;;;8.59;100.00;99567.84;5103131;28;20043;-68
2024/01/05 03:15:16;;;;;;;10.90;3.20;;;;;;;8.58;100.00;99558.06;5103263;28;20520;-67
2024/01/05 03:18:04;;;;;;;11.95;3.30;;;;;;;8.60;100.00;99561.31;5103473;27;20051;-67
2024/01/05 03:20:53;;;;;;;8.80;2.72;;;;;;;8.60;100.00;99551.25;5089744;28;20127;-68
2024/01/05 03:23:41;;;;;;;10.07;2.97;;;;;;;8.60;100.00;99547.75;5056253;28;20055;-68
2024/01/05 03:26:29;;;;;;;12.73;3.10;;;;;;;8.60;100.00;99545.03;5096621;28;20097;-68
2024/01/05 03:29:17;;;;;;;12.85;3.17;;;;;;;8.61;100.00;99538.47;5115868;27;20047;-68
2024/01/05 03:32:05;;;;;;;8.18;3.13;;;;;;;8.62;100.00;99537.41;5084688;28;20132;-70
2024/01/05 03:34:53;;;;;;;9.52;2.97;;;;;;;8.63;100.00;99536.28;5114377;28;20412;-69
2024/01/05 03:37:41;;;;;;;9.38;3.08;;;;;;;8.61;100.00;99533.88;5100329;28;20136;-68
2024/01/05 03:40:29;;;;;;;10.00;2.90;;;;;;;8.60;100.00;99526.00;5096528;27;20036;-67
2024/01/05 03:43:17;;;;;;;12.10;2.70;;;;;;;8.58;100.00;99530.91;5099789;27;20059;-68
2024/01/05 03:46:12;;;;;;;11.75;3.15;;;;;;;8.57;100.00;99515.75;5132825;27;20483;-67
2024/01/05 03:49:00;;;;;;;9.48;2.83;;;;;;;8.58;100.00;99522.78;5085237;28;20126;-67
2024/01/05 03:51:48;;;;;;;7.70;2.60;;;;;;;8.53;100.00;99524.44;5114599;27;20423;-67
2024/01/05 03:54:36;;;;;;;11.57;3.47;;;;;;;8.51;100.00;99521.22;5103834;27;20194;-67
2024/01/05 03:57:25;;;;;;;9.73;2.70;;;;;;;8.50;100.00;99508.72;5115068;28;20418;-68
2024/01/05 04:00:13;;;;;;;10.30;3.00;;;;;;;8.51;100.00;99506.81;5114279;27;20050;-68
2024/01/05 04:03:01;;;;;;;8.45;2.70;;;;;;;8.51;100.00;99496.78;5094907;28;20043;-68
2024/01/05 04:05:49;;;;;;;9.90;3.38;;;;;;;8.55;100.00;99505.16;5114696;28;20146;-68
2024/01/05 04:08:39;;;;;;;10.40;2.53;;;;;;;8.57;100.00;99491.31;5080436;28;20138;-68
2024/01/05 04:11:30;;;;;;;8.98;2.70;;;;;;;8.57;100.00;99494.03;5093711;28;20052;-68
2024/01/05 04:14:18;;;;;;;12.55;2.80;;;;;;;8.58;100.00;99479.34;5080178;28;20412;-67
2024/01/05 04:17:06;;;;;;;11.05;3.08;;;;;;;8.58;100.00;99477.44;5093681;28;20056;-67
2024/01/05 04:19:53;;;;;;;9.95;2.80;;;;;;;8.58;100.00;99473.91;5112232;27;20043;-69
2024/01/05 04:22:42;;;;;;;6.47;2.55;;;;;;;8.58;100.00;99463.03;5092896;28;20092;-68
2024/01/05 04:25:30;;;;;;;11.63;2.90;;;;;;;8.58;100.00;99463.03;5078098;28;20058;-68
2024/01/05 04:28:20;;;;;;;11.15;3.00;;;;;;;8.59;100.00;99461.97;5080198;28;20048;-68
2024/01/05 04:31:08;;;;;;;9.90;2.58;;;;;;;8.59;100.00;99459.25;5097620;28;20074;-68
2024/01/05 04:33:56;;;;;;;17.25;2.92;;;;;;;8.58;100.00;99452.19;5096795;28;20063;-68
2024/01/05 04:36:44;;;;;;;8.10;2.95;;;;;;;8.58;100.00;99444.03;5112684;28;20055;-69
2024/01/05 04:39:33;;;;;;;7.93;3.22;;;;;;;8.52;100.00;99443.31;5099453;28;20056;-68
2024/01/05 04:42:22;;;;;;;7.85;2.60;;;;;;;8.52;100.00;99443.31;5112139;28;20500;-66
2024/01/05 04:45:11;;;;;;;8.63;2.83;;;;;;;8.51;100.00;99437.06;5110353;27;20043;-67
2024/01/05 04:48:03;;;;;;;9.30;2.40;;;;;;;8.53;100.00;99437.56;5112400;28;20070;-67
2024/01/05 04:50:51;;;;;;;10.50;2.83;;;;;;;8.52;100.00;99416.97;5114238;28;20436;-67
2024/01/05 04:53:39;;;;;;;7.88;2.42;;;;;;;8.55;100.00;99417.47;5097249;28;20054;-67
2024/01/05 04:56:27;;;;;;;7.55;2.75;;;;;;;8.54;100.00;99416.69;5071896;27;20528;-68
2024/01/05 04:59:15;;;;;;;11.35;3.28;;;;;;;8.54;100.00;99405.81;5107972;27;20059;-67
2024/01/05 05:02:03;;;;;;;7.15;2.58;;;;;;;8.52;100.00;99411.53;5097419;28;20418;-68
2024/01/05 05:04:51;;;;;;;10.30;3.10;;;;;;;8.52;100.00;99406.09;5113078;27;20559;-67
2024/01/05 05:07:39;;;;;;;8.50;2.40;;;;;;;8.52;100.00;99406.09;5097396;28;20127;-67
2024/01/05 05:10:27;;;;;;;8.98;2.70;;;;;;;8.53;100.00;99396.84;5097560;28;20061;-67
2024/01/05 05:13:15;;;;;;;9.52;2.78;;;;;;;8.50;100.00;99405.56;5077439;28;20439;-67
2024/01/05 05:16:03;;;;;;;11.02;3.03;;;;;;;8.49;100.00;99395.81;5077069;28;20044;-67
2024/01/05 05:18:52;;;;;;;10.45;3.17;;;;;;;8.49;100.00;99389.56;5078014;28;20052;-68
2024/01/05 05:21:40;;;;;;;11.25;3.28;;;;;;;8.50;100.00;99389.28;5096788;27;20039;-67
2024/01/05 05:24:28;;;;;;;7.97;2.70;;;;;;;8.50;100.00;99381.16;5111568;28;20054;-67
2024/01/05 05:27:16;;;;;;;10.25;2.80;;;;;;;8.53;100.00;99375.13;5110760;28;20039;-67
2024/01/05 05:30:06;;;;;;;9.43;2.50;;;;;;;8.55;100.00;99384.91;5097913;28;20040;-68
2024/01/05 05:32:54;;;;;;;11.63;3.38;;;;;;;8.52;100.00;99384.38;5098368;28;20047;-67
2024/01/05 05:35:43;;;;;;;9.82;2.80;;;;;;;8.51;100.00;99385.50;5097364;28;20043;-69
2024/01/05 05:38:31;;;;;;;7.07;2.67;;;;;;;8.48;100.00;99394.19;5103394;28;20047;-67
2024/01/05 05:41:19;;;;;;;8.93;2.70;;;;;;;8.45;100.00;99386.63;5082814;28;20096;-68
2024/01/05 05:44:07;;;;;;;11.10;3.13;;;;;;;8.43;100.00;99385.31;5096962;28;20134;-67
2024/01/05 05:46:56;;;;;;;10.30;2.70;;;;;;;8.41;100.00;99382.88;5112107;28;20118;-67
2024/01/05 05:49:44;;;;;;;11.60;3.00;;;;;;;8.42;100.00;99381.78;5119914;28;20048;-68
2024/01/05 05:52:34;;;;;;;9.70;2.60;;;;;;;8.42;100.00;99384.50;5112765;28;20040;-66
2024/01/05 05:55:22;;;;;;;10.25;2.80;;;;;;;8.44;100.00;99382.31;5113141;28;20060;-71
2024/01/05 05:58:10;;;;;;;10.93;3.00;;;;;;;8.43;100.00;99386.13;5092424;28;20048;-69
2024/01/05 06:00:58;;;;;;;11.75;3.03;;;;;;;8.40;100.00;99391.31;5107852;27;20047;-70
2024/01/05 06:03:46;;;;;;;10.45;2.88;;;;;;;8.36;100.00;99391.03;4397753;28;9999918;-68
2024/01/05 06:06:35;;;;;;;8.30;3.05;;;;;;;8.32;100.00;99379.16;5095679;28;20047;-68
2024/01/05 06:09:23;;;;;;;11.63;3.10;;;;;;;8.31;100.00;99388.41;5108693;28;20048;-69
2024/01/05 06:12:11;;;;;;;7.85;2.92;;;;;;;8.33;100.00;99383.50;5112187;27;20100;-69
2024/01/05 06:14:59;;;;;;;10.18;3.22;;;;;;;8.38;100.00;99383.44;5116188;28;20051;-70
2024/01/05 06:17:49;;;;;;;7.45;2.17;;;;;;;8.41;100.00;99382.88;5122618;28;20111;-70
2024/01/05 06:20:39;;;;;;;7.95;2.53;;;;;;;8.42;100.00;99389.09;5085310;28;20040;-67
2024/01/05 06:23:35;;;;;;;6.15;2.42;;;;;;;8.43;100.00;99402.41;5076438;28;20060;-68
2024/01/05 06:26:23;;;;;;;7.05;2.00;;;;;;;8.47;100.00;99405.34;5136428;28;20134;-70
2024/01/05 06:29:11;;;;;;;5.60;1.98;;;;;;;8.64;100.00;99391.31;5112342;28;20140;-71
2024/01/05 06:31:59;;;;;;;5.68;1.80;;;;;;;8.74;100.00;99399.31;5102033;28;20054;-70
2024/01/05 06:34:47;;;;;;;4.55;1.60;;;;;;;8.69;100.00;99383.09;5109753;28;20074;-67
2024/01/05 06:37:35;;;;;;;3.92;1.67;;;;;;;8.60;100.00;99384.84;5096161;28;20043;-69
2024/01/05 06:40:23;;;;;;;3.60;1.67;;;;;;;8.77;100.00;99384.34;5089715;28;20439;-66
2024/01/05 06:43:11;;;;;;;6.55;1.73;;;;;;;8.90;100.00;99384.47;5060997;28;20114;-69
2024/01/05 06:45:59;;;;;;;4.63;1.63;;;;;;;8.83;100.00;99384.00;5092859;28;20534;-69
2024/01/05 06:48:47;;;;;;;3.65;1.50;;;;;;;8.80;100.00;99389.19;5107094;28;20496;-66
2024/01/05 06:51:39;;;;;;;4.50;1.67;;;;;;;8.91;100.00;99383.34;5124915;28;20475;-69
2024/01/05 06:54:28;;;;;;;3.25;1.42;;;;;;;8.86;100.00;99383.41;5093943;28;20062;-70
2024/01/05 06:57:16;;;;;;;5.72;1.90;;;;;;;8.95;100.00;99389.00;5092334;28;20078;-68
2024/01/05 07:00:05;;;;;;;2.35;1.48;;;;;;;8.94;100.00;99395.53;5092951;28;20048;-69
2024/01/05 07:02:53;;;;;;;4.20;1.80;;;;;;;8.98;100.00;99395.78;5105694;28;20126;-68
2024/01/05 07:05:41;;;;;;;2.72;1.10;;;;;;;9.01;100.00;99392.47;5106563;28;20134;-67
2024/01/05 07:08:29;;;;;;;5.20;1.45;;;;;;;9.36;100.00;99388.44;5110447;27;20044;-67
2024/01/05 07:11:24;;;;;;;5.80;2.00;;;;;;;9.55;100.00;99393.84;5077299;28;20112;-69
2024/01/05 07:14:12;;;;;;;4.50;1.53;;;;;;;9.43;100.00;99382.59;5086862;28;20051;-69
2024/01/05 07:17:00;;;;;;;2.78;1.17;;;;;;;9.19;100.00;99386.22;5080107;28;20597;-69
2024/01/05 07:19:48;;;;;;;3.25;1.63;;;;;;;9.22;100.00;99388.34;5112282;28;20564;-68
2024/01/05 07:22:36;;;;;;;1.60;1.23;;;;;;;9.22;100.00;99388.34;5082638;28;20073;-68
2024/01/05 07:25:25;;;;;;;3.92;1.42;;;;;;;9.46;100.00;99384.75;5076531;28;20455;-66
2024/01/05 07:28:13;;;;;;;1.70;1.15;;;;;;;9.51;100.00;99384.66;5086556;27;20065;-71
2024/01/05 07:31:08;;;;;;;2.42;1.27;;;;;;;9.25;100.00;99390.47;5097014;28;20469;-67
2024/01/05 07:34:03;;;;;;;5.80;1.60;;;;;;;9.36;100.00;99381.06;5068828;28;20508;-68
2024/01/05 07:36:52;;;;;;;3.95;1.20;;;;;;;9.11;100.00;99389.59;5096351;28;20101;-69
2024/01/05 07:39:40;;;;;;;2.75;1.25;;;;;;;9.22;100.00;99391.06;5080453;28;20050;-68
2024/01/05 07:42:28;;;;;;;6.82;1.80;;;;;;;9.05;100.00;99388.88;5110435;28;20388;-67
2024/01/05 07:45:16;;;;;;;4.85;1.45;;;;;;;8.70;100.00;99390.94;5110603;28;20070;-68
2024/01/05 07:48:09;;;;;;;5.78;2.13;;;;;;;8.55;100.00;99396.56;5097463;28;20048;-66
2024/01/05 07:50:57;;;;;;;7.47;2.30;;;;;;;8.51;100.00;99401.78;5112800;28;20134;-67
2024/01/05 07:53:45;;;;;;;8.98;1.73;;;;;;;8.46;100.00;99396.38;5099948;28;20039;-67
2024/01/05 07:56:38;;;;;;;41.47;7.47;;;;;;;9.05;100.00;99390.78;5113933;28;20128;-66
2024/01/05 07:59:26;;;;;;;21.45;5.78;;;;;;;9.05;100.00;99401.66;5123201;27;20043;-65
2024/01/05 08:02:14;;;;;;;20.27;6.25;;;;;;;9.16;100.00;99392.22;5134674;27;20047;-67
2024/01/05 08:05:02;;;;;;;32.90;6.20;;;;;;;9.39;100.00;99385.91;5109294;28;20078;-66
2024/01/05 08:07:50;;;;;;;14.50;4.28;;;;;;;9.52;100.00;99388.97;5114036;28;20047;-67
2024/01/05 08:10:38;;;;;;;21.10;5.35;;;;;;;9.30;100.00;99393.13;5113233;28;20039;-66
2024/01/05 08:13:27;;;;;;;12.20;3.53;;;;;;;9.38;100.00;99400.63;5114264;28;20044;-66
2024/01/05 08:16:15;;;;;;;12.85;3.70;;;;;;;9.29;100.00;99393.44;5098302;28;20484;-67
2024/01/05 08:19:03;;;;;;;13.50;4.78;;;;;;;8.98;100.00;99401.19;5107340;28;20503;-66
2024/01/05 08:21:51;;;;;;;14.45;3.88;;;;;;;8.82;100.00;99403.31;5080415;28;20056;-67
2024/01/05 08:24:39;;;;;;;11.57;3.17;;;;;;;8.98;100.00;99395.78;5093097;28;20040;-67
2024/01/05 08:27:27;;;;;;;11.02;2.97;;;;;;;9.03;100.00;99379.41;5093748;28;20044;-66
2024/01/05 08:30:15;;;;;;;10.70;3.00;;;;;;;9.08;100.00;99384.75;5075929;28;20048;-65
2024/01/05 08:33:04;;;;;;;7.72;2.33;;;;;;;8.86;100.00;99386.13;5077159;28;20039;-66
2024/01/05 08:35:52;;;;;;;9.27;2.60;;;;;;;8.86;100.00;99383.41;5096580;28;20054;-68
2024/01/05 08:38:40;;;;;;;8.63;2.60;;;;;;;8.88;100.00;99383.94;5098946;28;20054;-66
2024/01/05 08:41:28;;;;;;;7.18;2.80;;;;;;;9.26;100.00;99378.53;5085390;28;20136;-67
2024/01/05 08:44:16;;;;;;;9.27;3.28;;;;;;;9.11;100.00;99387.69;5118037;27;20133;-67
2024/01/05 08:47:05;;;;;;;4.20;1.98;;;;;;;9.08;100.00;99391.00;5118546;27;20043;-67
2024/01/05 08:49:54;;;;;;;6.07;2.15;;;;;;;8.98;100.00;99393.06;5103064;28;20048;-68
2024/01/05 08:52:43;;;;;;;3.22;1.13;;;;;;;8.82;100.00;99397.88;5112332;28;20058;-67
2024/01/05 08:55:31;;;;;;;5.78;2.30;;;;;;;8.60;100.00;99396.50;5114555;28;20070;-67
2024/01/05 08:58:19;;;;;;;6.25;2.42;;;;;;;8.71;100.00;99402.63;5113416;28;20189;-68
2024/01/05 09:01:07;;;;;;;4.40;1.45;;;;;;;8.40;100.00;99402.97;5065256;28;20515;-69
2024/01/05 09:03:56;;;;;;;3.88;1.90;;;;;;;8.40;100.00;99402.97;5093919;28;20050;-68
2024/01/05 09:06:44;;;;;;;10.27;3.28;;;;;;;8.76;100.00;99415.34;5093713;28;20055;-67
2024/01/05 09:09:33;;;;;;;14.80;4.00;;;;;;;8.86;100.00;99404.34;5106896;28;20525;-66
2024/01/05 09:12:21;;;;;;;9.00;3.03;;;;;;;8.93;100.00;99411.03;5113513;27;20051;-66
2024/01/05 09:15:28;;;;;;;5.10;2.13;;;;;;;8.55;100.00;99428.34;5071145;28;20457;-66
2024/01/05 09:18:38;;;;;;;9.25;3.08;;;;;;;8.43;100.00;99424.09;5087353;28;20050;-67
2024/01/05 09:21:27;;;;;;;5.45;1.85;;;;;;;8.62;100.00;99421.47;5111316;28;20046;-67
2024/01/05 09:24:15;;;;;;;2.08;1.20;;;;;;;8.66;100.00;99433.38;5113478;28;20415;-66
2024/01/05 09:27:03;;;;;;;3.97;1.67;;;;;;;8.46;100.00;99436.28;5070149;28;20043;-66
2024/01/05 09:29:51;;;;;;;1.73;0.98;;;;;;;8.33;100.00;99437.75;5096602;28;20048;-65
2024/01/05 09:32:39;;;;;;;5.75;2.25;;;;;;;8.32;100.00;99445.09;5111676;28;20075;-67
2024/01/05 09:35:28;;;;;;;4.57;2.00;;;;;;;8.46;100.00;99439.00;5112746;28;20048;-66
2024/01/05 09:38:39;;;;;;;6.65;2.10;;;;;;;8.88;100.00;99437.47;5089792;28;20055;-66
2024/01/05 09:41:47;;;;;;;5.68;1.92;;;;;;;8.78;100.00;99441.09;5088488;28;20043;-67
2024/01/05 09:44:55;;;;;;;7.65;2.50;;;;;;;8.77;100.00;99442.19;5100855;28;20449;-66
2024/01/05 09:48:04;;;;;;;3.53;1.45;;;;;;;8.41;100.00;99442.59;5100619;28;20053;-67
2024/01/05 09:51:12;;;;;;;3.63;1.30;;;;;;;8.05;100.00;99442.91;5101770;27;20105;-66
2024/01/05 09:54:20;;;;;;;4.07;1.70;;;;;;;7.98;100.00;99450.56;5058512;28;20052;-66
2024/01/05 09:57:29;;;;;;;3.58;2.03;;;;;;;8.03;100.00;99447.81;5077675;28;20048;-66
2024/01/05 10:00:38;;;;;;;1.88;1.63;;;;;;;8.33;100.00;99445.91;5101982;27;20051;-67
2024/01/05 10:03:47;;;;;;;4.57;1.73;;;;;;;8.24;100.00;99453.06;5109146;27;20043;-67
2024/01/05 10:07:02;;;;;;;4.57;2.10;;;;;;;8.31;100.00;99442.66;5099019;27;20039;-66
2024/01/05 10:10:13;;;;;;;2.00;1.65;;;;;;;8.15;100.00;99443.91;5069607;28;20060;-67
2024/01/05 10:13:21;;;;;;;5.72;2.03;;;;;;;8.13;100.00;99444.22;5079507;28;20114;-70
2024/01/05 10:16:43;;;;;;;4.32;1.70;;;;;;;8.45;100.00;99434.69;5090574;28;20130;-68
2024/01/05 10:19:51;;;;;;;6.30;1.70;;;;;;;8.51;100.00;99433.53;5080571;28;20047;-68
2024/01/05 10:23:03;;;;;;;4.32;1.67;;;;;;;8.37;100.00;99432.56;5091705;28;20508;-67
2024/01/05 10:26:16;;;;;;;4.38;1.70;;;;;;;8.36;100.00;99441.81;5084998;28;20044;-67
2024/01/05 10:29:24;;;;;;;4.72;1.67;;;;;;;8.32;100.00;99444.28;5089189;28;20046;-67
2024/01/05 10:32:32;;;;;;;3.47;1.70;;;;;;;8.25;100.00;99444.63;5071947;28;20039;-67
2024/01/05 10:35:40;;;;;;;6.22;1.73;;;;;;;8.42;100.00;99444.22;5100810;28;20036;-69
2024/01/05 10:38:49;;;;;;;3.80;1.35;;;;;;;8.15;100.00;99446.63;5095026;28;20048;-70
2024/01/05 10:42:29;;;;;;;4.20;1.65;;;;;;;8.10;100.00;99447.47;5082312;28;20048;-68
2024/01/05 10:45:40;;;;;;;2.58;1.40;;;;;;;8.01;100.00;99444.59;5089732;28;20130;-67
2024/01/05 10:48:48;;;;;;;4.45;1.85;;;;;;;8.09;100.00;99441.25;5087468;28;20124;-67
2024/01/05 10:51:57;;;;;;;4.38;1.88;;;;;;;8.35;100.00;99451.06;5106739;27;20043;-69
2024/01/05 10:55:05;;;;;;;5.68;2.03;;;;;;;8.25;100.00;99454.66;5124275;27;20051;-69
2024/01/05 10:58:13;;;;;;;3.35;1.65;;;;;;;8.32;100.00;99446.97;5082931;28;20076;-67
2024/01/05 11:01:23;;;;;;;2.97;1.70;;;;;;;8.20;100.00;99449.28;5101622;27;20054;-69
2024/01/05 11:04:33;;;;;;;4.55;1.92;;;;;;;8.23;100.00;99456.88;5123861;27;20047;-68
2024/01/05 11:07:42;;;;;;;3.45;1.60;;;;;;;8.22;100.00;99438.97;5091903;28;20177;-68
2024/01/05 11:10:56;;;;;;;3.13;1.65;;;;;;;8.31;100.00;99443.47;5109275;27;20047;-66
2024/01/05 11:14:31;;;;;;;2.08;1.40;;;;;;;8.15;100.00;99444.72;5126554;27;20058;-68
2024/01/05 11:18:21;;;;;;;3.15;1.50;;;;;;;7.83;100.00;99450.69;5095190;28;20518;-69
2024/01/05 11:21:55;;;;;;;3.67;1.50;;;;;;;7.60;100.00;99454.91;5102415;28;20051;-67
2024/01/05 11:25:04;;;;;;;4.40;1.98;;;;;;;7.59;100.00;99456.81;5071932;28;20059;-68
2024/01/05 11:28:31;;;;;;;1.58;1.38;;;;;;;7.56;100.00;99449.28;5095423;28;20055;-67
2024/01/05 11:31:48;;;;;;;3.30;1.58;;;;;;;7.56;100.00;99443.03;5102207;28;20051;-67
2024/01/05 11:34:56;;;;;;;2.17;1.42;;;;;;;7.69;100.00;99448.63;5080647;28;20120;-68
2024/01/05 11:38:26;;;;;;;5.68;2.42;;;;;;;7.87;100.00;99438.19;5104702;28;20047;-68
2024/01/05 11:41:34;;;;;;;7.80;2.60;;;;;;;7.89;100.00;99442.25;5083712;28;20063;-70
2024/01/05 11:44:42;;;;;;;18.40;6.85;;;;;;;8.15;100.00;99447.41;5071304;28;20424;-68
2024/01/05 11:47:50;;;;;;;20.02;7.55;;;;;;;8.26;100.00;99435.38;5081992;28;20087;-68
2024/01/05 11:50:59;;;;;;;12.60;4.72;;;;;;;8.24;100.00;99443.00;5095142;28;20051;-69
2024/01/05 11:54:09;;;;;;;31.77;11.52;;;;;;;8.10;100.00;99432.03;5102274;28;20115;-69
2024/01/05 11:57:17;;;;;;;25.65;10.48;;;;;;;8.21;100.00;99431.94;5091113;28;20040;-69
2024/01/05 12:00:24;;;;;;;30.17;11.02;;;;;;;8.14;100.00;99428.72;5093883;27;20043;-68
2024/01/05 12:03:33;;;;;;;24.25;10.45;;;;;;;8.23;100.00;99435.16;5101641;27;20054;-68
2024/01/05 12:06:43;;;;;;;31.25;11.05;;;;;;;8.41;100.00;99436.34;5111279;27;20050;-69
2024/01/05 12:09:52;;;;;;;30.85;11.85;;;;;;;8.35;100.00;99421.22;5099197;28;20039;-70
2024/01/05 12:13:00;;;;;;;7.15;2.72;;;;;;;8.24;100.00;99431.34;5090578;28;20047;-69
2024/01/05 12:16:09;;;;;;;13.85;4.60;;;;;;;8.03;100.00;99426.13;5092470;27;20067;-68
2024/01/05 12:19:21;;;;;;;20.55;7.78;;;;;;;8.11;100.00;99420.06;5076806;28;20052;-69
2024/01/05 12:22:29;;;;;;;24.05;9.70;;;;;;;8.32;100.00;99426.09;5081174;28;20109;-70
2024/01/05 12:25:39;;;;;;;20.08;7.68;;;;;;;8.24;100.00;99412.34;5101597;28;20380;-69
2024/01/05 12:28:48;;;;;;;29.33;10.88;;;;;;;8.28;100.00;99416.13;5082002;28;20047;-69
2024/01/05 12:31:56;;;;;;;26.65;11.57;;;;;;;8.17;100.00;99437.09;5070947;28;20071;-70
2024/01/05 12:35:05;;;;;;;17.30;7.20;;;;;;;8.18;100.00;99429.75;5081796;28;20067;-69
2024/01/05 12:38:28;;;;;;;38.25;15.05;;;;;;;8.59;100.00;99432.09;5060873;28;20488;-68
2024/01/05 12:41:41;;;;;;;29.33;12.18;;;;;;;8.45;100.00;99430.06;5071776;28;20052;-68
2024/01/05 12:44:49;;;;;;;28.77;12.13;;;;;;;8.36;100.00;99423.63;5070030;28;20514;-68
2024/01/05 12:47:57;;;;;;;20.80;9.07;;;;;;;8.34;100.00;99420.38;5081722;28;20044;-69
2024/01/05 12:51:06;;;;;;;24.13;8.85;;;;;;;8.28;100.00;99422.34;5086230;27;20138;-67
2024/01/05 12:54:14;;;;;;;20.70;8.82;;;;;;;8.35;100.00;99411.16;5078220;28;20048;-68
2024/01/05 12:57:22;;;;;;;23.70;9.48;;;;;;;8.44;100.00;99420.31;5089326;28;20047;-68
2024/01/05 13:00:38;;;;;;;25.00;11.40;;;;;;;8.15;100.00;99422.19;5089433;28;20050;-68
2024/01/05 13:03:56;;;;;;;20.20;7.90;;;;;;;8.10;100.00;99421.19;5088875;28;20050;-68
2024/01/05 13:07:06;;;;;;;9.77;3.83;;;;;;;8.00;100.00;99415.81;5089272;28;20044;-69
2024/01/05 13:10:14;;;;;;;9.65;4.13;;;;;;;8.05;100.00;99417.69;5081195;28;20122;-69
2024/01/05 13:13:22;;;;;;;19.88;7.72;;;;;;;7.85;100.00;99414.06;5081859;28;20521;-69
2024/01/05 13:16:30;;;;;;;19.30;9.13;;;;;;;7.87;100.00;99421.94;5081125;28;20099;-69
2024/01/05 13:19:42;;;;;;;7.70;3.40;;;;;;;7.77;100.00;99422.81;5087174;28;20513;-69
2024/01/05 13:22:51;;;;;;;13.15;5.47;;;;;;;7.94;100.00;99427.00;5090056;28;20063;-67
2024/01/05 13:26:00;;;;;;;6.47;3.13;;;;;;;7.76;100.00;99423.09;5090981;28;20393;-67
2024/01/05 13:29:08;;;;;;;20.98;7.82;;;;;;;7.94;100.00;99427.84;5111265;28;20039;-68
2024/01/05 13:32:16;;;;;;;10.70;4.30;;;;;;;7.99;100.00;99430.50;5089497;28;20051;-68
2024/01/05 13:35:24;;;;;;;17.58;7.60;;;;;;;7.89;100.00;99436.00;5079134;28;20172;-70
2024/01/05 13:38:34;;;;;;;10.25;4.90;;;;;;;7.86;100.00;99436.56;5095884;27;20044;-70